sensor_id;sensor_type;location;lat;lon;timestamp;temperature;humidity
7000;DHT22;3540;53.242;10.408;2022-09-09T00:00:14;13.60;99.90
7000;DHT22;3540;53.242;10.408;2022-09-09T00:05:41;13.60;99.90
7000;DHT22;3540;53.242;10.408;2022-09-09T00:08:18;13.70;99.90
7000;DHT22;3540;53.242;10.408;2022-09-09T00:10:47;13.70;99.90
7000;DHT22;3540;53.242;10.408;2022-09-09T00:13:24;13.70;99.90
7000;DHT22;3540;53.242;10.408;2022-09-09T00:24:46;13.70;99.90
7000;DHT22;3540;53.242;10.408;2022-09-09T00:30:19;13.70;99.90
7000;DHT22;3540;53.242;10.408;2022-09-09T00:32:46;13.60;99.90
7000;DHT22;3540;53.242;10.408;2022-09-09T00:35:25;13.60;99.90
7000;DHT22;3540;53.242;10.408;2022-09-09T00:37:55;13.60;99.90
7000;DHT22;3540;53.242;10.408;2022-09-09T00:40:27;13.60;99.90
7000;DHT22;3540;53.242;10.408;2022-09-09T00:45:45;13.60;99.90
7000;DHT22;3540;53.242;10.408;2022-09-09T00:48:15;13.50;99.90
7000;DHT22;3540;53.242;10.408;2022-09-09T00:50:53;13.50;99.90
7000;DHT22;3540;53.242;10.408;2022-09-09T00:53:51;13.50;99.90
7000;DHT22;3540;53.242;10.408;2022-09-09T00:56:29;13.50;99.90
7000;DHT22;3540;53.242;10.408;2022-09-09T01:01:53;13.50;99.90
7000;DHT22;3540;53.242;10.408;2022-09-09T01:04:28;13.40;99.90
7000;DHT22;3540;53.242;10.408;2022-09-09T01:07:06;13.50;99.90
7000;DHT22;3540;53.242;10.408;2022-09-09T01:10:07;13.40;99.90
7000;DHT22;3540;53.242;10.408;2022-09-09T01:12:41;13.40;99.90
7000;DHT22;3540;53.242;10.408;2022-09-09T01:15:13;13.40;99.90
7000;DHT22;3540;53.242;10.408;2022-09-09T01:20:14;13.50;99.90
7000;DHT22;3540;53.242;10.408;2022-09-09T01:28:01;13.40;99.90
7000;DHT22;3540;53.242;10.408;2022-09-09T01:30:28;13.30;99.90
7000;DHT22;3540;53.242;10.408;2022-09-09T01:32:56;13.30;99.90
7000;DHT22;3540;53.242;10.408;2022-09-09T01:37:57;13.20;99.90
7000;DHT22;3540;53.242;10.408;2022-09-09T01:40:24;13.30;99.90
7000;DHT22;3540;53.242;10.408;2022-09-09T01:42:49;13.20;99.90
7000;DHT22;3540;53.242;10.408;2022-09-09T01:45:15;13.20;99.90
7000;DHT22;3540;53.242;10.408;2022-09-09T01:47:41;13.20;99.90
7000;DHT22;3540;53.242;10.408;2022-09-09T01:50:08;13.10;99.90
7000;DHT22;3540;53.242;10.408;2022-09-09T01:52:36;13.10;99.90
7000;DHT22;3540;53.242;10.408;2022-09-09T01:55:03;13.10;99.90
7000;DHT22;3540;53.242;10.408;2022-09-09T01:57:36;13.10;99.90
7000;DHT22;3540;53.242;10.408;2022-09-09T02:05:38;13.00;99.90
7000;DHT22;3540;53.242;10.408;2022-09-09T02:08:10;13.00;99.90
7000;DHT22;3540;53.242;10.408;2022-09-09T02:10:38;12.90;99.90
7000;DHT22;3540;53.242;10.408;2022-09-09T02:13:09;12.90;99.90
7000;DHT22;3540;53.242;10.408;2022-09-09T02:15:38;12.90;99.90
7000;DHT22;3540;53.242;10.408;2022-09-09T02:18:09;12.80;99.90
7000;DHT22;3540;53.242;10.408;2022-09-09T02:20:38;12.80;99.90
7000;DHT22;3540;53.242;10.408;2022-09-09T02:23:05;12.80;99.90
7000;DHT22;3540;53.242;10.408;2022-09-09T02:25:34;12.80;99.90
7000;DHT22;3540;53.242;10.408;2022-09-09T02:28:01;12.80;99.90
7000;DHT22;3540;53.242;10.408;2022-09-09T02:30:30;12.80;99.90
7000;DHT22;3540;53.242;10.408;2022-09-09T02:32:58;12.70;99.90
7000;DHT22;3540;53.242;10.408;2022-09-09T02:35:28;12.70;99.90
7000;DHT22;3540;53.242;10.408;2022-09-09T02:37:57;12.70;99.90
7000;DHT22;3540;53.242;10.408;2022-09-09T02:40:24;12.70;99.90
7000;DHT22;3540;53.242;10.408;2022-09-09T02:42:50;12.70;99.90
7000;DHT22;3540;53.242;10.408;2022-09-09T02:45:23;12.60;99.90
7000;DHT22;3540;53.242;10.408;2022-09-09T02:48:09;12.60;99.90
7000;DHT22;3540;53.242;10.408;2022-09-09T02:50:50;12.60;99.90
7000;DHT22;3540;53.242;10.408;2022-09-09T02:53:23;12.60;99.90
7000;DHT22;3540;53.242;10.408;2022-09-09T02:56:18;12.60;99.90
7000;DHT22;3540;53.242;10.408;2022-09-09T02:58:47;12.60;99.90
7000;DHT22;3540;53.242;10.408;2022-09-09T03:01:14;12.60;99.90
7000;DHT22;3540;53.242;10.408;2022-09-09T03:03:40;12.50;99.90
7000;DHT22;3540;53.242;10.408;2022-09-09T03:06:06;12.50;99.90
7000;DHT22;3540;53.242;10.408;2022-09-09T03:08:32;12.50;99.90
7000;DHT22;3540;53.242;10.408;2022-09-09T03:10:59;12.50;99.90
7000;DHT22;3540;53.242;10.408;2022-09-09T03:13:27;12.40;99.90
7000;DHT22;3540;53.242;10.408;2022-09-09T03:15:52;12.40;99.90
7000;DHT22;3540;53.242;10.408;2022-09-09T03:18:18;12.40;99.90
7000;DHT22;3540;53.242;10.408;2022-09-09T03:20:44;12.40;99.90
7000;DHT22;3540;53.242;10.408;2022-09-09T03:23:11;12.40;99.90
7000;DHT22;3540;53.242;10.408;2022-09-09T03:25:38;12.40;99.90
7000;DHT22;3540;53.242;10.408;2022-09-09T03:28:04;12.40;99.90
7000;DHT22;3540;53.242;10.408;2022-09-09T03:30:30;12.40;99.90
7000;DHT22;3540;53.242;10.408;2022-09-09T03:32:56;12.40;99.90
7000;DHT22;3540;53.242;10.408;2022-09-09T03:35:22;12.30;99.90
7000;DHT22;3540;53.242;10.408;2022-09-09T03:37:48;12.30;99.90
7000;DHT22;3540;53.242;10.408;2022-09-09T03:40:14;12.30;99.90
7000;DHT22;3540;53.242;10.408;2022-09-09T03:42:40;12.30;99.90
7000;DHT22;3540;53.242;10.408;2022-09-09T03:45:07;12.30;99.90
7000;DHT22;3540;53.242;10.408;2022-09-09T03:47:34;12.30;99.90
7000;DHT22;3540;53.242;10.408;2022-09-09T03:50:00;12.30;99.90
7000;DHT22;3540;53.242;10.408;2022-09-09T03:52:26;12.30;99.90
7000;DHT22;3540;53.242;10.408;2022-09-09T03:54:53;12.30;99.90
7000;DHT22;3540;53.242;10.408;2022-09-09T03:57:19;12.20;99.90
7000;DHT22;3540;53.242;10.408;2022-09-09T03:59:45;12.20;99.90
7000;DHT22;3540;53.242;10.408;2022-09-09T04:02:11;12.20;99.90
7000;DHT22;3540;53.242;10.408;2022-09-09T04:04:36;12.20;99.90
7000;DHT22;3540;53.242;10.408;2022-09-09T04:07:02;12.30;99.90
7000;DHT22;3540;53.242;10.408;2022-09-09T04:09:28;12.30;99.90
7000;DHT22;3540;53.242;10.408;2022-09-09T04:11:53;12.30;99.90
7000;DHT22;3540;53.242;10.408;2022-09-09T04:14:20;12.30;99.90
7000;DHT22;3540;53.242;10.408;2022-09-09T04:16:46;12.30;99.90
7000;DHT22;3540;53.242;10.408;2022-09-09T04:19:12;12.30;99.90
7000;DHT22;3540;53.242;10.408;2022-09-09T04:21:40;12.30;99.90
7000;DHT22;3540;53.242;10.408;2022-09-09T04:24:07;12.30;99.90
7000;DHT22;3540;53.242;10.408;2022-09-09T04:26:33;12.40;99.90
7000;DHT22;3540;53.242;10.408;2022-09-09T04:28:59;12.50;99.90
7000;DHT22;3540;53.242;10.408;2022-09-09T04:31:24;12.50;99.90
7000;DHT22;3540;53.242;10.408;2022-09-09T04:33:51;12.50;99.90
7000;DHT22;3540;53.242;10.408;2022-09-09T04:36:18;12.50;99.90
7000;DHT22;3540;53.242;10.408;2022-09-09T04:38:45;12.60;99.90
7000;DHT22;3540;53.242;10.408;2022-09-09T04:41:11;12.60;99.90
7000;DHT22;3540;53.242;10.408;2022-09-09T04:43:38;12.60;99.90
7000;DHT22;3540;53.242;10.408;2022-09-09T04:46:05;12.60;99.90
7000;DHT22;3540;53.242;10.408;2022-09-09T04:48:31;12.70;99.90
7000;DHT22;3540;53.242;10.408;2022-09-09T04:51:02;12.70;99.90
7000;DHT22;3540;53.242;10.408;2022-09-09T04:53:28;12.60;99.90
7000;DHT22;3540;53.242;10.408;2022-09-09T04:56:08;12.60;99.90
7000;DHT22;3540;53.242;10.408;2022-09-09T04:58:35;12.60;99.90
7000;DHT22;3540;53.242;10.408;2022-09-09T05:01:10;12.70;99.90
7000;DHT22;3540;53.242;10.408;2022-09-09T05:03:36;12.70;99.90
7000;DHT22;3540;53.242;10.408;2022-09-09T05:06:07;12.70;99.90
7000;DHT22;3540;53.242;10.408;2022-09-09T05:08:34;12.80;99.90
7000;DHT22;3540;53.242;10.408;2022-09-09T05:11:00;12.80;99.90
7000;DHT22;3540;53.242;10.408;2022-09-09T05:13:26;12.80;99.90
7000;DHT22;3540;53.242;10.408;2022-09-09T05:15:53;12.80;99.90
7000;DHT22;3540;53.242;10.408;2022-09-09T05:18:19;12.80;99.90
7000;DHT22;3540;53.242;10.408;2022-09-09T05:20:45;12.80;99.90
7000;DHT22;3540;53.242;10.408;2022-09-09T05:23:10;12.80;99.90
7000;DHT22;3540;53.242;10.408;2022-09-09T05:25:39;12.80;99.90
7000;DHT22;3540;53.242;10.408;2022-09-09T05:28:07;12.80;99.90
7000;DHT22;3540;53.242;10.408;2022-09-09T05:30:33;12.80;99.90
7000;DHT22;3540;53.242;10.408;2022-09-09T05:32:59;12.80;99.90
7000;DHT22;3540;53.242;10.408;2022-09-09T05:35:25;12.80;99.90
7000;DHT22;3540;53.242;10.408;2022-09-09T05:37:51;12.90;99.90
7000;DHT22;3540;53.242;10.408;2022-09-09T05:40:16;12.90;99.90
7000;DHT22;3540;53.242;10.408;2022-09-09T05:42:42;13.00;99.90
7000;DHT22;3540;53.242;10.408;2022-09-09T05:45:08;13.00;99.90
7000;DHT22;3540;53.242;10.408;2022-09-09T05:47:35;13.00;99.90
7000;DHT22;3540;53.242;10.408;2022-09-09T05:50:03;13.20;99.90
7000;DHT22;3540;53.242;10.408;2022-09-09T05:52:29;13.20;99.90
7000;DHT22;3540;53.242;10.408;2022-09-09T05:54:54;13.20;99.90
7000;DHT22;3540;53.242;10.408;2022-09-09T05:57:22;13.30;99.90
7000;DHT22;3540;53.242;10.408;2022-09-09T05:59:48;13.40;99.90
7000;DHT22;3540;53.242;10.408;2022-09-09T06:02:15;13.40;99.90
7000;DHT22;3540;53.242;10.408;2022-09-09T06:04:40;13.40;99.90
7000;DHT22;3540;53.242;10.408;2022-09-09T06:07:06;13.50;99.90
7000;DHT22;3540;53.242;10.408;2022-09-09T06:09:32;13.50;99.90
7000;DHT22;3540;53.242;10.408;2022-09-09T06:11:57;13.50;99.90
7000;DHT22;3540;53.242;10.408;2022-09-09T06:14:23;13.50;99.90
7000;DHT22;3540;53.242;10.408;2022-09-09T06:16:51;13.50;99.90
7000;DHT22;3540;53.242;10.408;2022-09-09T06:19:17;13.50;99.90
7000;DHT22;3540;53.242;10.408;2022-09-09T06:21:43;13.70;99.90
7000;DHT22;3540;53.242;10.408;2022-09-09T06:24:09;13.70;99.90
7000;DHT22;3540;53.242;10.408;2022-09-09T06:26:39;13.70;99.90
7000;DHT22;3540;53.242;10.408;2022-09-09T06:29:08;13.70;99.90
7000;DHT22;3540;53.242;10.408;2022-09-09T06:31:35;13.70;99.90
7000;DHT22;3540;53.242;10.408;2022-09-09T06:34:03;13.80;99.90
7000;DHT22;3540;53.242;10.408;2022-09-09T06:36:31;13.80;99.90
7000;DHT22;3540;53.242;10.408;2022-09-09T06:38:58;13.90;99.90
7000;DHT22;3540;53.242;10.408;2022-09-09T06:41:27;13.90;99.90
7000;DHT22;3540;53.242;10.408;2022-09-09T06:43:53;13.90;99.90
7000;DHT22;3540;53.242;10.408;2022-09-09T06:46:25;13.90;99.90
7000;DHT22;3540;53.242;10.408;2022-09-09T06:48:53;14.00;99.90
7000;DHT22;3540;53.242;10.408;2022-09-09T06:51:25;14.00;99.90
7000;DHT22;3540;53.242;10.408;2022-09-09T06:53:54;14.00;99.90
7000;DHT22;3540;53.242;10.408;2022-09-09T06:56:28;14.00;99.90
7000;DHT22;3540;53.242;10.408;2022-09-09T06:58:55;14.10;99.90
7000;DHT22;3540;53.242;10.408;2022-09-09T07:01:23;14.10;99.90
7000;DHT22;3540;53.242;10.408;2022-09-09T07:03:51;14.20;99.90
7000;DHT22;3540;53.242;10.408;2022-09-09T07:06:22;14.30;99.90
7000;DHT22;3540;53.242;10.408;2022-09-09T07:08:52;14.40;99.90
7000;DHT22;3540;53.242;10.408;2022-09-09T07:11:19;14.40;99.90
7000;DHT22;3540;53.242;10.408;2022-09-09T07:13:45;14.60;99.90
7000;DHT22;3540;53.242;10.408;2022-09-09T07:16:14;14.70;99.90
7000;DHT22;3540;53.242;10.408;2022-09-09T07:18:40;14.80;99.90
7000;DHT22;3540;53.242;10.408;2022-09-09T07:21:08;14.90;99.90
7000;DHT22;3540;53.242;10.408;2022-09-09T07:23:34;14.90;99.90
7000;DHT22;3540;53.242;10.408;2022-09-09T07:26:01;14.90;99.90
7000;DHT22;3540;53.242;10.408;2022-09-09T07:28:27;15.00;99.90
7000;DHT22;3540;53.242;10.408;2022-09-09T07:31:04;15.20;99.90
7000;DHT22;3540;53.242;10.408;2022-09-09T07:33:32;15.40;99.90
7000;DHT22;3540;53.242;10.408;2022-09-09T07:36:16;15.50;99.90
7000;DHT22;3540;53.242;10.408;2022-09-09T07:38:48;15.50;99.90
7000;DHT22;3540;53.242;10.408;2022-09-09T07:41:20;15.60;99.90
7000;DHT22;3540;53.242;10.408;2022-09-09T07:43:48;15.70;99.90
7000;DHT22;3540;53.242;10.408;2022-09-09T07:46:15;15.70;99.90
7000;DHT22;3540;53.242;10.408;2022-09-09T07:48:49;15.90;99.90
7000;DHT22;3540;53.242;10.408;2022-09-09T07:51:42;16.10;99.90
7000;DHT22;3540;53.242;10.408;2022-09-09T07:54:09;16.20;99.90
7000;DHT22;3540;53.242;10.408;2022-09-09T07:56:35;16.40;99.90
7000;DHT22;3540;53.242;10.408;2022-09-09T07:59:02;16.50;99.90
7000;DHT22;3540;53.242;10.408;2022-09-09T08:01:33;16.60;99.90
7000;DHT22;3540;53.242;10.408;2022-09-09T08:04:03;16.70;99.90
7000;DHT22;3540;53.242;10.408;2022-09-09T08:06:34;16.70;99.90
7000;DHT22;3540;53.242;10.408;2022-09-09T08:09:00;16.80;99.90
7000;DHT22;3540;53.242;10.408;2022-09-09T08:11:27;16.90;99.90
7000;DHT22;3540;53.242;10.408;2022-09-09T08:13:54;16.80;99.90
7000;DHT22;3540;53.242;10.408;2022-09-09T08:16:22;17.00;99.90
7000;DHT22;3540;53.242;10.408;2022-09-09T08:18:52;17.00;99.90
7000;DHT22;3540;53.242;10.408;2022-09-09T08:21:23;17.10;99.90
7000;DHT22;3540;53.242;10.408;2022-09-09T08:23:51;17.10;99.90
7000;DHT22;3540;53.242;10.408;2022-09-09T08:26:38;17.00;99.90
7000;DHT22;3540;53.242;10.408;2022-09-09T08:29:08;17.10;99.90
7000;DHT22;3540;53.242;10.408;2022-09-09T08:31:40;17.10;99.90
7000;DHT22;3540;53.242;10.408;2022-09-09T08:34:07;17.10;99.90
7000;DHT22;3540;53.242;10.408;2022-09-09T08:36:35;17.30;99.90
7000;DHT22;3540;53.242;10.408;2022-09-09T08:39:04;17.40;99.90
7000;DHT22;3540;53.242;10.408;2022-09-09T08:52:17;17.70;99.90
7000;DHT22;3540;53.242;10.408;2022-09-09T08:54:44;18.00;99.90
7000;DHT22;3540;53.242;10.408;2022-09-09T08:57:20;18.10;99.90
7000;DHT22;3540;53.242;10.408;2022-09-09T08:59:47;17.90;99.90
7000;DHT22;3540;53.242;10.408;2022-09-09T09:02:42;17.90;99.90
7000;DHT22;3540;53.242;10.408;2022-09-09T09:05:36;18.00;99.90
7000;DHT22;3540;53.242;10.408;2022-09-09T09:08:25;18.30;99.90
7000;DHT22;3540;53.242;10.408;2022-09-09T09:10:54;18.70;99.90
7000;DHT22;3540;53.242;10.408;2022-09-09T09:13:43;18.80;99.90
7000;DHT22;3540;53.242;10.408;2022-09-09T09:16:25;18.80;99.90
7000;DHT22;3540;53.242;10.408;2022-09-09T09:18:52;18.70;99.90
7000;DHT22;3540;53.242;10.408;2022-09-09T09:21:38;18.80;99.90
7000;DHT22;3540;53.242;10.408;2022-09-09T09:24:56;18.80;99.90
7000;DHT22;3540;53.242;10.408;2022-09-09T09:27:00;18.60;99.90
7000;DHT22;3540;53.242;10.408;2022-09-09T09:29:32;18.60;99.90
7000;DHT22;3540;53.242;10.408;2022-09-09T09:32:02;18.70;99.90
7000;DHT22;3540;53.242;10.408;2022-09-09T09:34:28;18.70;99.90
7000;DHT22;3540;53.242;10.408;2022-09-09T09:36:59;18.70;99.90
7000;DHT22;3540;53.242;10.408;2022-09-09T09:39:33;18.80;99.90
7000;DHT22;3540;53.242;10.408;2022-09-09T09:42:16;18.90;99.90
7000;DHT22;3540;53.242;10.408;2022-09-09T09:44:42;18.70;99.90
7000;DHT22;3540;53.242;10.408;2022-09-09T09:47:28;18.70;99.90
7000;DHT22;3540;53.242;10.408;2022-09-09T09:49:58;18.70;99.90
7000;DHT22;3540;53.242;10.408;2022-09-09T09:52:29;18.70;99.90
7000;DHT22;3540;53.242;10.408;2022-09-09T09:54:56;18.80;99.90
7000;DHT22;3540;53.242;10.408;2022-09-09T09:57:28;19.00;99.90
7000;DHT22;3540;53.242;10.408;2022-09-09T10:00:17;19.10;99.90
7000;DHT22;3540;53.242;10.408;2022-09-09T10:02:44;19.20;99.90
7000;DHT22;3540;53.242;10.408;2022-09-09T10:05:20;19.20;99.90
7000;DHT22;3540;53.242;10.408;2022-09-09T10:07:47;19.40;99.90
7000;DHT22;3540;53.242;10.408;2022-09-09T10:10:23;19.50;99.90
7000;DHT22;3540;53.242;10.408;2022-09-09T10:13:05;19.60;99.90
7000;DHT22;3540;53.242;10.408;2022-09-09T10:21:48;19.60;99.90
7000;DHT22;3540;53.242;10.408;2022-09-09T10:35:52;20.50;99.90
7000;DHT22;3540;53.242;10.408;2022-09-09T10:38:42;21.20;99.90
7000;DHT22;3540;53.242;10.408;2022-09-09T10:41:21;21.30;99.90
7000;DHT22;3540;53.242;10.408;2022-09-09T10:55:13;21.40;99.90
7000;DHT22;3540;53.242;10.408;2022-09-09T10:57:48;21.60;99.90
7000;DHT22;3540;53.242;10.408;2022-09-09T11:00:30;21.70;99.90
7000;DHT22;3540;53.242;10.408;2022-09-09T11:03:02;21.40;99.90
7000;DHT22;3540;53.242;10.408;2022-09-09T11:06:01;21.40;99.90
7000;DHT22;3540;53.242;10.408;2022-09-09T11:08:29;21.50;99.90
7000;DHT22;3540;53.242;10.408;2022-09-09T11:11:25;21.40;99.90
7000;DHT22;3540;53.242;10.408;2022-09-09T11:19:39;20.70;99.90
7000;DHT22;3540;53.242;10.408;2022-09-09T11:25:03;20.90;99.90
7000;DHT22;3540;53.242;10.408;2022-09-09T11:30:19;20.70;99.90
7000;DHT22;3540;53.242;10.408;2022-09-09T11:35:42;20.30;99.90
7000;DHT22;3540;53.242;10.408;2022-09-09T11:40:47;19.70;99.90
7000;DHT22;3540;53.242;10.408;2022-09-09T11:43:29;19.60;99.90
7000;DHT22;3540;53.242;10.408;2022-09-09T11:45:58;19.60;99.90
7000;DHT22;3540;53.242;10.408;2022-09-09T11:48:35;19.50;99.90
7000;DHT22;3540;53.242;10.408;2022-09-09T11:51:03;19.30;99.90
7000;DHT22;3540;53.242;10.408;2022-09-09T11:53:30;18.40;99.90
7000;DHT22;3540;53.242;10.408;2022-09-09T11:56:02;17.90;99.90
7000;DHT22;3540;53.242;10.408;2022-09-09T11:58:31;17.20;99.90
7000;DHT22;3540;53.242;10.408;2022-09-09T12:00:58;16.90;99.90
7000;DHT22;3540;53.242;10.408;2022-09-09T12:03:48;16.90;99.90
7000;DHT22;3540;53.242;10.408;2022-09-09T12:08:45;17.10;99.90
7000;DHT22;3540;53.242;10.408;2022-09-09T12:11:12;17.20;99.90
7000;DHT22;3540;53.242;10.408;2022-09-09T12:13:54;17.50;99.90
7000;DHT22;3540;53.242;10.408;2022-09-09T12:19:20;17.70;99.90
7000;DHT22;3540;53.242;10.408;2022-09-09T12:24:35;18.10;99.90
7000;DHT22;3540;53.242;10.408;2022-09-09T12:27:07;18.40;99.90
7000;DHT22;3540;53.242;10.408;2022-09-09T12:29:47;18.60;99.90
7000;DHT22;3540;53.242;10.408;2022-09-09T12:32:24;19.00;99.90
7000;DHT22;3540;53.242;10.408;2022-09-09T12:34:52;19.30;99.90
7000;DHT22;3540;53.242;10.408;2022-09-09T12:37:27;19.30;99.90
7000;DHT22;3540;53.242;10.408;2022-09-09T12:40:06;19.30;99.90
7000;DHT22;3540;53.242;10.408;2022-09-09T12:42:32;19.30;99.90
7000;DHT22;3540;53.242;10.408;2022-09-09T12:45:03;19.10;99.90
7000;DHT22;3540;53.242;10.408;2022-09-09T12:47:50;19.30;99.90
7000;DHT22;3540;53.242;10.408;2022-09-09T12:50:27;19.30;99.90
7000;DHT22;3540;53.242;10.408;2022-09-09T12:52:57;19.20;99.90
7000;DHT22;3540;53.242;10.408;2022-09-09T12:55:28;19.30;99.90
7000;DHT22;3540;53.242;10.408;2022-09-09T12:57:55;19.80;99.90
7000;DHT22;3540;53.242;10.408;2022-09-09T13:00:24;20.30;99.90
7000;DHT22;3540;53.242;10.408;2022-09-09T13:02:54;20.80;99.90
7000;DHT22;3540;53.242;10.408;2022-09-09T13:05:24;21.10;99.90
7000;DHT22;3540;53.242;10.408;2022-09-09T13:07:50;21.50;99.90
7000;DHT22;3540;53.242;10.408;2022-09-09T13:10:23;21.80;99.90
7000;DHT22;3540;53.242;10.408;2022-09-09T13:12:52;22.20;99.90
7000;DHT22;3540;53.242;10.408;2022-09-09T13:15:23;22.10;99.90
7000;DHT22;3540;53.242;10.408;2022-09-09T13:17:55;22.00;99.90
7000;DHT22;3540;53.242;10.408;2022-09-09T13:20:22;21.90;99.90
7000;DHT22;3540;53.242;10.408;2022-09-09T13:22:49;21.40;99.90
7000;DHT22;3540;53.242;10.408;2022-09-09T13:25:27;20.80;99.90
7000;DHT22;3540;53.242;10.408;2022-09-09T13:28:02;20.50;99.90
7000;DHT22;3540;53.242;10.408;2022-09-09T13:30:31;20.10;99.90
7000;DHT22;3540;53.242;10.408;2022-09-09T13:35:54;19.70;99.90
7000;DHT22;3540;53.242;10.408;2022-09-09T13:38:20;19.60;99.90
7000;DHT22;3540;53.242;10.408;2022-09-09T13:41:04;19.50;99.90
7000;DHT22;3540;53.242;10.408;2022-09-09T13:43:38;19.40;99.90
7000;DHT22;3540;53.242;10.408;2022-09-09T13:46:38;19.30;99.90
7000;DHT22;3540;53.242;10.408;2022-09-09T13:54:00;18.90;99.90
7000;DHT22;3540;53.242;10.408;2022-09-09T13:56:26;18.90;99.90
7000;DHT22;3540;53.242;10.408;2022-09-09T13:58:52;18.80;99.90
7000;DHT22;3540;53.242;10.408;2022-09-09T14:01:18;18.70;99.90
7000;DHT22;3540;53.242;10.408;2022-09-09T14:03:43;18.70;99.90
7000;DHT22;3540;53.242;10.408;2022-09-09T14:06:10;18.40;99.90
7000;DHT22;3540;53.242;10.408;2022-09-09T14:08:36;18.20;99.90
7000;DHT22;3540;53.242;10.408;2022-09-09T14:11:05;17.90;99.90
7000;DHT22;3540;53.242;10.408;2022-09-09T14:13:31;17.80;99.90
7000;DHT22;3540;53.242;10.408;2022-09-09T14:15:57;17.60;99.90
7000;DHT22;3540;53.242;10.408;2022-09-09T14:18:22;17.30;99.90
7000;DHT22;3540;53.242;10.408;2022-09-09T14:20:48;17.10;99.90
7000;DHT22;3540;53.242;10.408;2022-09-09T14:23:16;17.00;99.90
7000;DHT22;3540;53.242;10.408;2022-09-09T14:25:43;16.90;99.90
7000;DHT22;3540;53.242;10.408;2022-09-09T14:28:10;16.70;99.90
7000;DHT22;3540;53.242;10.408;2022-09-09T14:30:38;16.50;99.90
7000;DHT22;3540;53.242;10.408;2022-09-09T14:33:05;16.30;99.90
7000;DHT22;3540;53.242;10.408;2022-09-09T14:35:30;16.20;99.90
7000;DHT22;3540;53.242;10.408;2022-09-09T14:37:56;16.20;99.90
7000;DHT22;3540;53.242;10.408;2022-09-09T14:40:21;16.10;99.90
7000;DHT22;3540;53.242;10.408;2022-09-09T14:42:47;16.10;99.90
7000;DHT22;3540;53.242;10.408;2022-09-09T14:45:13;16.00;99.90
7000;DHT22;3540;53.242;10.408;2022-09-09T14:47:38;16.10;99.90
7000;DHT22;3540;53.242;10.408;2022-09-09T14:50:05;16.00;99.90
7000;DHT22;3540;53.242;10.408;2022-09-09T14:52:31;16.00;99.90
7000;DHT22;3540;53.242;10.408;2022-09-09T14:54:57;15.90;99.90
7000;DHT22;3540;53.242;10.408;2022-09-09T14:57:22;16.00;99.90
7000;DHT22;3540;53.242;10.408;2022-09-09T14:59:48;16.00;99.90
7000;DHT22;3540;53.242;10.408;2022-09-09T15:02:15;16.10;99.90
7000;DHT22;3540;53.242;10.408;2022-09-09T15:04:41;16.00;99.90
7000;DHT22;3540;53.242;10.408;2022-09-09T15:07:06;15.90;99.90
7000;DHT22;3540;53.242;10.408;2022-09-09T15:09:32;16.00;99.90
7000;DHT22;3540;53.242;10.408;2022-09-09T15:11:58;16.10;99.90
7000;DHT22;3540;53.242;10.408;2022-09-09T15:14:23;16.30;99.90
7000;DHT22;3540;53.242;10.408;2022-09-09T15:16:49;16.50;99.90
7000;DHT22;3540;53.242;10.408;2022-09-09T15:19:14;16.70;99.90
7000;DHT22;3540;53.242;10.408;2022-09-09T15:21:40;16.80;99.90
7000;DHT22;3540;53.242;10.408;2022-09-09T15:24:06;17.00;99.90
7000;DHT22;3540;53.242;10.408;2022-09-09T15:26:33;17.10;99.90
7000;DHT22;3540;53.242;10.408;2022-09-09T15:28:59;17.20;99.90
7000;DHT22;3540;53.242;10.408;2022-09-09T15:31:27;17.20;99.90
7000;DHT22;3540;53.242;10.408;2022-09-09T15:33:58;17.30;99.90
7000;DHT22;3540;53.242;10.408;2022-09-09T15:36:28;17.40;99.90
7000;DHT22;3540;53.242;10.408;2022-09-09T15:38:54;17.40;99.90
7000;DHT22;3540;53.242;10.408;2022-09-09T15:41:21;17.50;99.90
7000;DHT22;3540;53.242;10.408;2022-09-09T15:43:55;17.50;99.90
7000;DHT22;3540;53.242;10.408;2022-09-09T15:46:31;17.60;99.90
7000;DHT22;3540;53.242;10.408;2022-09-09T15:51:28;17.70;99.90
7000;DHT22;3540;53.242;10.408;2022-09-09T15:53:57;17.90;99.90
7000;DHT22;3540;53.242;10.408;2022-09-09T15:56:24;18.00;99.90
7000;DHT22;3540;53.242;10.408;2022-09-09T15:58:50;18.10;99.90
7000;DHT22;3540;53.242;10.408;2022-09-09T16:01:16;18.10;99.90
7000;DHT22;3540;53.242;10.408;2022-09-09T16:03:43;18.10;99.90
7000;DHT22;3540;53.242;10.408;2022-09-09T16:06:11;18.10;99.90
7000;DHT22;3540;53.242;10.408;2022-09-09T16:08:40;18.10;99.90
7000;DHT22;3540;53.242;10.408;2022-09-09T16:13:38;18.00;99.90
7000;DHT22;3540;53.242;10.408;2022-09-09T16:16:05;18.00;99.90
7000;DHT22;3540;53.242;10.408;2022-09-09T16:18:43;18.10;99.90
7000;DHT22;3540;53.242;10.408;2022-09-09T16:21:17;18.20;99.90
7000;DHT22;3540;53.242;10.408;2022-09-09T16:23:43;18.30;99.90
7000;DHT22;3540;53.242;10.408;2022-09-09T16:26:12;18.50;99.90
7000;DHT22;3540;53.242;10.408;2022-09-09T16:28:38;18.70;99.90
7000;DHT22;3540;53.242;10.408;2022-09-09T16:31:06;18.90;99.90
7000;DHT22;3540;53.242;10.408;2022-09-09T16:33:31;19.00;99.90
7000;DHT22;3540;53.242;10.408;2022-09-09T16:35:57;19.00;99.90
7000;DHT22;3540;53.242;10.408;2022-09-09T16:38:23;18.90;99.90
7000;DHT22;3540;53.242;10.408;2022-09-09T16:40:49;18.90;99.90
7000;DHT22;3540;53.242;10.408;2022-09-09T16:43:15;18.70;99.90
7000;DHT22;3540;53.242;10.408;2022-09-09T16:45:45;18.60;99.90
7000;DHT22;3540;53.242;10.408;2022-09-09T16:48:11;18.40;99.90
7000;DHT22;3540;53.242;10.408;2022-09-09T16:50:37;18.30;99.90
7000;DHT22;3540;53.242;10.408;2022-09-09T16:53:04;18.40;99.90
7000;DHT22;3540;53.242;10.408;2022-09-09T16:55:32;18.30;99.90
7000;DHT22;3540;53.242;10.408;2022-09-09T16:57:57;18.30;99.90
7000;DHT22;3540;53.242;10.408;2022-09-09T17:00:23;18.20;99.90
7000;DHT22;3540;53.242;10.408;2022-09-09T17:02:49;18.20;99.90
7000;DHT22;3540;53.242;10.408;2022-09-09T17:05:14;18.10;99.90
7000;DHT22;3540;53.242;10.408;2022-09-09T17:07:40;18.00;99.90
7000;DHT22;3540;53.242;10.408;2022-09-09T17:10:07;17.90;99.90
7000;DHT22;3540;53.242;10.408;2022-09-09T17:12:33;17.90;99.90
7000;DHT22;3540;53.242;10.408;2022-09-09T17:15:00;17.80;99.90
7000;DHT22;3540;53.242;10.408;2022-09-09T17:17:28;17.70;99.90
7000;DHT22;3540;53.242;10.408;2022-09-09T17:19:54;17.70;99.90
7000;DHT22;3540;53.242;10.408;2022-09-09T17:22:20;17.60;99.90
7000;DHT22;3540;53.242;10.408;2022-09-09T17:24:46;17.50;99.90
7000;DHT22;3540;53.242;10.408;2022-09-09T17:27:12;17.40;99.90
7000;DHT22;3540;53.242;10.408;2022-09-09T17:29:38;17.30;99.90
7000;DHT22;3540;53.242;10.408;2022-09-09T17:32:05;17.20;99.90
7000;DHT22;3540;53.242;10.408;2022-09-09T17:34:33;17.10;99.90
7000;DHT22;3540;53.242;10.408;2022-09-09T17:36:59;17.00;99.90
7000;DHT22;3540;53.242;10.408;2022-09-09T17:39:24;16.90;99.90
7000;DHT22;3540;53.242;10.408;2022-09-09T17:41:50;16.80;99.90
7000;DHT22;3540;53.242;10.408;2022-09-09T17:44:16;16.80;99.90
7000;DHT22;3540;53.242;10.408;2022-09-09T17:46:42;16.70;99.90
7000;DHT22;3540;53.242;10.408;2022-09-09T17:49:10;16.60;99.90
7000;DHT22;3540;53.242;10.408;2022-09-09T17:51:37;16.60;99.90
7000;DHT22;3540;53.242;10.408;2022-09-09T17:54:06;16.50;99.90